Time;durP1;ratioP1;P1;durP2;ratioP2;P2;SDS_P1;SDS_P2;PMS_P1;PMS_P2;Temp;Humidity;BMP_temperature;BMP_pressure;BME280_temperature;BME280_humidity;BME280_pressure;Samples;Min_cycle;Max_cycle;Signal;HPM_P1;HPM_P2
2023/07/23 00:01:17;;;;;;;5.70;3.40;;;20.50;99.90;;;;;;6189626;23;20410;-80
2023/07/23 00:03:50;;;;;;;3.50;3.30;;;20.50;99.90;;;;;;6190075;23;20419;-79
2023/07/23 00:06:26;;;;;;;3.60;3.30;;;20.50;99.90;;;;;;6187421;23;20944;-80
2023/07/23 00:09:02;;;;;;;3.30;3.00;;;20.40;99.90;;;;;;6193098;23;20386;-79
2023/07/23 00:11:34;;;;;;;3.93;3.07;;;20.40;99.90;;;;;;6202308;23;20418;-78
2023/07/23 00:14:09;;;;;;;4.40;3.07;;;20.20;99.90;;;;;;6201187;23;20503;-79
2023/07/23 00:16:52;;;;;;;3.77;3.00;;;20.30;99.90;;;;;;6191537;23;20867;-79
2023/07/23 00:19:30;;;;;;;3.50;3.20;;;20.40;99.90;;;;;;6191529;23;20408;-78
2023/07/23 00:22:13;;;;;;;3.83;3.20;;;20.30;99.90;;;;;;6192285;23;20425;-79
2023/07/23 00:24:46;;;;;;;5.70;3.13;;;20.30;99.90;;;;;;6190405;23;20505;-79
2023/07/23 00:27:14;;;;;;;4.33;3.20;;;20.30;99.90;;;;;;6193917;23;20430;-79
2023/07/23 00:29:46;;;;;;;5.10;3.10;;;20.20;99.90;;;;;;6185592;23;20391;-79
2023/07/23 00:32:27;;;;;;;3.73;3.43;;;20.20;99.90;;;;;;6186146;23;20411;-79
2023/07/23 00:34:58;;;;;;;4.33;3.43;;;20.20;99.90;;;;;;6185070;23;20506;-78
2023/07/23 00:37:33;;;;;;;3.50;3.30;;;20.10;99.90;;;;;;6187417;23;20415;-80
2023/07/23 00:40:06;;;;;;;3.00;2.80;;;20.20;99.90;;;;;;6188899;23;20419;-79
2023/07/23 00:42:43;;;;;;;3.40;3.10;;;20.20;99.90;;;;;;6188393;23;20587;-78
2023/07/23 00:45:19;;;;;;;3.00;2.70;;;20.20;99.90;;;;;;6188172;23;20457;-79
2023/07/23 00:47:57;;;;;;;3.80;3.20;;;20.10;99.90;;;;;;6188791;23;20411;-79
2023/07/23 00:50:32;;;;;;;3.37;3.13;;;20.10;99.90;;;;;;6188954;23;20411;-80
2023/07/23 00:53:06;;;;;;;2.73;2.60;;;20.00;99.90;;;;;;6187993;23;20418;-79
2023/07/23 00:55:38;;;;;;;4.13;2.70;;;20.00;99.90;;;;;;6187912;23;20431;-80
2023/07/23 00:58:26;;;;;;;3.97;3.57;;;20.00;99.90;;;;;;6188361;23;20445;-78
2023/07/23 01:01:12;;;;;;;3.47;3.20;;;19.90;99.90;;;;;;6187743;23;20419;-78
2023/07/23 01:03:46;;;;;;;3.37;3.07;;;19.90;99.90;;;;;;6190287;23;20454;-80
2023/07/23 01:06:27;;;;;;;5.17;3.60;;;19.90;99.90;;;;;;6189180;23;20511;-78
2023/07/23 01:09:01;;;;;;;3.30;3.00;;;19.80;99.90;;;;;;6188390;23;20404;-78
2023/07/23 01:14:22;;;;;;;3.50;3.20;;;19.70;99.90;;;;;;6188416;23;20427;-79
2023/07/23 01:16:53;;;;;;;3.70;3.40;;;19.70;99.90;;;;;;6189578;23;20426;-78
2023/07/23 01:19:27;;;;;;;4.23;3.40;;;19.70;99.90;;;;;;6189149;23;20376;-78
2023/07/23 01:22:08;;;;;;;3.20;3.00;;;19.60;99.90;;;;;;6188655;23;20415;-79
2023/07/23 01:24:47;;;;;;;4.13;3.73;;;19.60;99.90;;;;;;6189009;23;20461;-79
2023/07/23 01:27:19;;;;;;;3.03;2.77;;;19.60;99.90;;;;;;6188820;23;20407;-78
2023/07/23 01:30:08;;;;;;;2.87;2.67;;;19.50;99.90;;;;;;6188501;23;20411;-79
2023/07/23 01:32:49;;;;;;;4.17;3.67;;;19.50;99.90;;;;;;6188911;23;20929;-77
2023/07/23 01:35:39;;;;;;;4.73;3.70;;;19.50;99.90;;;;;;6187199;23;20439;-79
2023/07/23 01:38:30;;;;;;;3.30;3.00;;;19.50;99.90;;;;;;6187878;23;20415;-79
2023/07/23 01:41:05;;;;;;;3.23;2.93;;;19.40;99.90;;;;;;6187457;23;20429;-78
2023/07/23 01:43:39;;;;;;;4.23;3.10;;;19.40;99.90;;;;;;6187423;23;21025;-78
2023/07/23 01:46:20;;;;;;;3.27;3.07;;;19.40;99.90;;;;;;6187731;23;20372;-79
2023/07/23 01:48:56;;;;;;;3.13;2.90;;;19.40;99.90;;;;;;6189532;23;20416;-79
2023/07/23 01:51:35;;;;;;;3.33;3.03;;;19.40;99.90;;;;;;6187724;23;20414;-79
2023/07/23 01:54:24;;;;;;;3.03;2.83;;;19.40;99.90;;;;;;6188995;23;20569;-80
2023/07/23 01:57:03;;;;;;;3.13;2.93;;;19.30;99.90;;;;;;6186100;23;20935;-78
2023/07/23 01:59:43;;;;;;;3.60;3.30;;;19.30;99.90;;;;;;6187495;23;20406;-79
2023/07/23 02:02:29;;;;;;;3.80;3.50;;;19.30;99.90;;;;;;6187542;23;20462;-79
2023/07/23 02:05:03;;;;;;;3.77;3.47;;;19.30;99.90;;;;;;6191220;23;20438;-79
2023/07/23 02:07:36;;;;;;;3.37;3.10;;;19.30;99.90;;;;;;6189760;23;20437;-78
2023/07/23 02:10:08;;;;;;;3.80;2.80;;;19.30;99.90;;;;;;6188802;23;20414;-79
2023/07/23 02:15:52;;;;;;;3.37;3.07;;;19.30;99.90;;;;;;6188765;23;20443;-78
2023/07/23 02:18:43;;;;;;;3.37;3.13;;;19.20;99.90;;;;;;6188899;23;20425;-80
2023/07/23 02:21:17;;;;;;;4.00;3.07;;;19.20;99.90;;;;;;6189023;23;20414;-78
2023/07/23 02:23:57;;;;;;;3.80;3.50;;;19.20;99.90;;;;;;6190170;23;20812;-78
2023/07/23 02:26:50;;;;;;;3.57;3.27;;;19.20;99.90;;;;;;6192105;23;20750;-78
2023/07/23 02:29:45;;;;;;;3.23;2.93;;;19.20;99.90;;;;;;6189202;23;20398;-78
2023/07/23 02:32:27;;;;;;;3.30;3.00;;;19.20;99.90;;;;;;6191067;23;20414;-77
2023/07/23 02:35:07;;;;;;;2.97;2.77;;;19.20;99.90;;;;;;6190227;23;20434;-78
2023/07/23 02:38:06;;;;;;;3.50;3.20;;;19.20;99.90;;;;;;6190305;23;20425;-79
2023/07/23 02:40:47;;;;;;;3.73;3.43;;;19.10;99.90;;;;;;6149521;23;20439;-79
2023/07/23 02:43:49;;;;;;;;;;;;;;;;;;;;;
2023/07/23 02:46:44;;;;;;;3.73;3.00;;;19.10;99.90;;;;;;6186909;23;20414;-79
2023/07/23 02:49:24;;;;;;;3.43;3.13;;;19.10;99.90;;;;;;6192202;23;20425;-78
2023/07/23 02:52:23;;;;;;;3.40;3.10;;;19.10;99.90;;;;;;6192312;23;20443;-79
2023/07/23 02:58:31;;;;;;;3.50;3.20;;;19.10;99.90;;;;;;6183438;23;20409;-79
2023/07/23 03:01:26;;;;;;;3.17;2.97;;;19.00;99.90;;;;;;6139354;23;20429;-78
2023/07/23 03:04:00;;;;;;;2.90;2.70;;;19.00;99.90;;;;;;6192882;23;20971;-79
2023/07/23 03:06:45;;;;;;;3.03;2.83;;;19.00;99.90;;;;;;6192831;23;20422;-80
2023/07/23 03:09:25;;;;;;;3.30;3.10;;;19.10;99.90;;;;;;6192609;23;20897;-79
2023/07/23 03:12:10;;;;;;;3.20;2.97;;;19.10;99.90;;;;;;6193549;23;20488;-79
2023/07/23 03:14:59;;;;;;;3.40;3.10;;;19.00;99.90;;;;;;6193402;23;20461;-77
2023/07/23 03:17:36;;;;;;;3.50;3.30;;;19.00;99.90;;;;;;6194550;23;20442;-77
2023/07/23 03:20:21;;;;;;;3.33;3.03;;;19.00;99.90;;;;;;6194666;23;20806;-78
2023/07/23 03:23:11;;;;;;;3.93;3.53;;;18.90;99.90;;;;;;6192804;23;20789;-79
2023/07/23 03:29:06;;;;;;;3.30;3.10;;;18.90;99.90;;;;;;6173938;23;20477;-78
2023/07/23 03:31:45;;;;;;;4.33;2.90;;;18.90;99.90;;;;;;6191979;23;20729;-78
2023/07/23 03:34:26;;;;;;;2.80;2.60;;;18.90;99.90;;;;;;6194547;23;20427;-78
2023/07/23 03:37:24;;;;;;;3.10;2.80;;;18.90;99.90;;;;;;6197774;23;20417;-80
2023/07/23 03:40:07;;;;;;;3.00;2.73;;;18.90;99.90;;;;;;6200247;23;20417;-78
2023/07/23 03:42:42;;;;;;;2.90;2.70;;;18.90;99.90;;;;;;6193800;23;20407;-78
2023/07/23 03:45:39;;;;;;;5.60;3.07;;;18.90;99.90;;;;;;6193927;23;20433;-77
2023/07/23 03:51:35;;;;;;;3.90;3.20;;;18.40;99.90;;;;;;6188882;23;20438;-79
2023/07/23 03:54:36;;;;;;;3.00;2.80;;;18.70;99.90;;;;;;6189664;23;20504;-78
2023/07/23 03:57:41;;;;;;;2.97;2.53;;;18.70;99.90;;;;;;6190117;23;20408;-78
2023/07/23 04:00:21;;;;;;;3.00;2.80;;;18.80;99.90;;;;;;6190976;23;20417;-77
2023/07/23 04:02:56;;;;;;;4.57;2.93;;;18.70;99.90;;;;;;6190252;23;20439;-78
2023/07/23 04:08:37;;;;;;;3.70;3.43;;;18.70;99.90;;;;;;6188430;23;20430;-78
2023/07/23 04:11:19;;;;;;;3.50;3.10;;;18.80;99.90;;;;;;6189028;23;20414;-78
2023/07/23 04:14:05;;;;;;;3.70;3.40;;;18.70;99.90;;;;;;6189142;23;20407;-78
2023/07/23 04:16:40;;;;;;;3.20;3.00;;;18.80;99.90;;;;;;6189209;23;20804;-79
2023/07/23 04:19:14;;;;;;;3.13;2.90;;;18.70;99.90;;;;;;6189455;23;20426;-78
2023/07/23 04:22:01;;;;;;;3.53;3.23;;;18.80;99.90;;;;;;6189997;23;20445;-79
2023/07/23 04:24:44;;;;;;;3.30;3.00;;;18.70;99.90;;;;;;6190007;23;20481;-78
2023/07/23 04:30:43;;;;;;;3.13;2.93;;;18.80;99.90;;;;;;6144909;23;20424;-80
2023/07/23 04:33:25;;;;;;;3.97;3.57;;;18.80;99.90;;;;;;6192782;23;20739;-81
2023/07/23 04:36:20;;;;;;;3.03;2.83;;;18.80;99.90;;;;;;6193320;23;20521;-80
2023/07/23 04:39:00;;;;;;;3.13;2.87;;;18.80;99.90;;;;;;6192508;23;20441;-78
2023/07/23 04:42:01;;;;;;;3.30;3.00;;;18.90;99.90;;;;;;6191283;23;20422;-82
2023/07/23 04:45:00;;;;;;;3.10;2.80;;;18.90;99.90;;;;;;6191001;23;20447;-78
2023/07/23 04:50:25;;;;;;;6.23;3.20;;;19.00;99.90;;;;;;6190237;23;20406;-78
2023/07/23 04:52:52;;;;;;;3.10;2.80;;;19.00;99.90;;;;;;6189726;23;20418;-78
2023/07/23 04:55:26;;;;;;;2.90;2.70;;;19.00;99.90;;;;;;6191353;23;20415;-78
2023/07/23 04:57:58;;;;;;;3.20;2.93;;;19.00;99.90;;;;;;6190065;23;20393;-80
2023/07/23 05:00:34;;;;;;;3.30;3.00;;;19.00;99.90;;;;;;6190220;23;20489;-79
2023/07/23 05:03:02;;;;;;;3.07;2.87;;;19.10;99.90;;;;;;6195281;23;20438;-80
2023/07/23 05:05:35;;;;;;;2.70;2.50;;;19.10;99.90;;;;;;6200966;23;20454;-80
2023/07/23 05:08:05;;;;;;;3.40;3.10;;;19.20;99.90;;;;;;6200833;23;20479;-81
2023/07/23 05:10:34;;;;;;;3.43;3.13;;;19.20;99.90;;;;;;6198204;23;20461;-79
2023/07/23 05:13:02;;;;;;;2.73;2.53;;;19.30;99.90;;;;;;6196543;23;20415;-80
2023/07/23 05:15:32;;;;;;;3.40;3.10;;;19.40;99.90;;;;;;6199243;23;20438;-80
2023/07/23 05:17:59;;;;;;;3.03;2.83;;;19.50;99.90;;;;;;6201782;23;20426;-77
2023/07/23 05:20:38;;;;;;;3.10;2.90;;;19.50;99.90;;;;;;6195060;23;20403;-81
2023/07/23 05:23:05;;;;;;;3.23;3.03;;;19.60;99.90;;;;;;6196724;23;20444;-80
2023/07/23 05:25:34;;;;;;;3.00;2.70;;;19.60;99.90;;;;;;6200686;23;20447;-80
2023/07/23 05:28:04;;;;;;;3.50;3.30;;;19.70;99.90;;;;;;6199769;23;20399;-80
2023/07/23 05:30:33;;;;;;;3.40;3.20;;;19.90;99.90;;;;;;6195223;23;20403;-78
2023/07/23 05:33:00;;;;;;;4.30;3.47;;;20.00;99.90;;;;;;6196645;23;21024;-80
2023/07/23 05:35:28;;;;;;;3.07;2.73;;;20.00;99.90;;;;;;6202818;23;20487;-80
2023/07/23 05:37:55;;;;;;;3.30;3.00;;;20.10;99.90;;;;;;6203637;23;20439;-77
2023/07/23 05:40:30;;;;;;;3.30;3.00;;;20.20;99.90;;;;;;6201063;23;20425;-78
2023/07/23 05:43:00;;;;;;;3.47;3.17;;;20.40;99.90;;;;;;6199634;23;20923;-78
2023/07/23 05:45:28;;;;;;;3.10;2.90;;;20.50;99.90;;;;;;6200348;23;20447;-77
2023/07/23 05:47:56;;;;;;;2.93;2.67;;;20.60;99.90;;;;;;6198376;23;20417;-78
2023/07/23 05:50:32;;;;;;;3.10;2.90;;;20.70;99.90;;;;;;6192640;23;20933;-80
2023/07/23 05:53:05;;;;;;;3.40;3.10;;;20.80;99.90;;;;;;6192657;23;20422;-78
2023/07/23 05:55:41;;;;;;;3.23;3.03;;;20.90;99.90;;;;;;6190264;23;20502;-79
2023/07/23 05:58:15;;;;;;;3.23;3.00;;;21.10;99.90;;;;;;6189259;23;20433;-77
2023/07/23 06:00:42;;;;;;;3.63;3.33;;;21.20;99.90;;;;;;6187296;23;20425;-79
2023/07/23 06:03:10;;;;;;;4.43;3.00;;;21.30;99.90;;;;;;6186104;23;20392;-80
2023/07/23 06:05:41;;;;;;;3.43;2.80;;;21.40;99.90;;;;;;6189193;23;20427;-78
2023/07/23 06:08:08;;;;;;;3.20;3.00;;;21.50;99.90;;;;;;6189679;23;20455;-79
2023/07/23 06:10:36;;;;;;;2.60;2.40;;;21.70;99.90;;;;;;6187201;23;20744;-78
2023/07/23 06:13:10;;;;;;;4.23;3.83;;;21.80;99.90;;;;;;6187438;23;20475;-79
2023/07/23 06:15:38;;;;;;;3.10;2.90;;;22.00;99.90;;;;;;6188263;23;20435;-81
2023/07/23 06:18:15;;;;;;;3.20;3.00;;;22.20;99.90;;;;;;6186897;23;20434;-80
2023/07/23 06:20:46;;;;;;;2.90;2.70;;;22.40;99.90;;;;;;6185725;23;20781;-79
2023/07/23 06:23:27;;;;;;;2.97;2.77;;;22.40;99.90;;;;;;6195150;23;20439;-78
2023/07/23 06:25:59;;;;;;;2.83;2.63;;;22.30;99.90;;;;;;6190546;23;20442;-80
2023/07/23 06:28:45;;;;;;;2.73;2.50;;;22.40;99.90;;;;;;6195076;23;20407;-79
2023/07/23 06:31:19;;;;;;;3.10;2.90;;;22.40;99.90;;;;;;6194278;23;20438;-81
2023/07/23 06:33:48;;;;;;;5.20;3.03;;;22.50;99.90;;;;;;6193332;23;20412;-80
2023/07/23 06:36:21;;;;;;;5.17;2.90;;;22.50;99.90;;;;;;6188877;23;20439;-79
2023/07/23 06:38:58;;;;;;;2.50;2.40;;;22.50;99.90;;;;;;6192107;23;20412;-77
2023/07/23 06:41:29;;;;;;;3.63;3.00;;;22.50;99.90;;;;;;6189758;23;20482;-79
2023/07/23 06:43:58;;;;;;;3.37;3.07;;;22.50;99.90;;;;;;6190511;23;20462;-79
2023/07/23 06:46:35;;;;;;;3.30;3.00;;;22.50;99.90;;;;;;6190888;23;20435;-77
2023/07/23 06:49:12;;;;;;;3.20;2.90;;;22.50;99.90;;;;;;6191420;23;20411;-78
2023/07/23 06:51:40;;;;;;;3.00;2.80;;;22.60;99.90;;;;;;6190239;23;20483;-78
2023/07/23 06:54:11;;;;;;;3.23;2.73;;;22.70;99.90;;;;;;6161217;23;20428;-80
2023/07/23 06:56:39;;;;;;;2.93;2.73;;;22.80;99.90;;;;;;6160632;23;20412;-77
2023/07/23 06:59:13;;;;;;;2.90;2.70;;;23.00;99.90;;;;;;6159706;23;20415;-78
2023/07/23 07:01:45;;;;;;;2.70;2.50;;;23.00;99.90;;;;;;6161745;23;20408;-81
2023/07/23 07:04:21;;;;;;;2.90;2.70;;;23.10;99.90;;;;;;6162212;23;21020;-77
2023/07/23 07:06:55;;;;;;;3.70;3.40;;;23.30;99.90;;;;;;6161570;23;20897;-77
2023/07/23 07:09:27;;;;;;;3.03;2.83;;;23.30;99.90;;;;;;6161013;23;20408;-81
2023/07/23 07:12:03;;;;;;;3.47;2.80;;;23.20;99.90;;;;;;6163522;23;20447;-78
2023/07/23 07:14:35;;;;;;;4.37;3.23;;;23.20;99.90;;;;;;6165867;23;20432;-80
2023/07/23 07:17:06;;;;;;;3.00;2.80;;;23.30;99.90;;;;;;6160303;23;20432;-80
2023/07/23 07:19:45;;;;;;;2.40;2.20;;;23.30;99.90;;;;;;6161608;23;20408;-81
2023/07/23 07:22:18;;;;;;;3.03;2.83;;;23.20;99.90;;;;;;6167416;23;20412;-78
2023/07/23 07:25:05;;;;;;;4.03;2.77;;;23.20;99.90;;;;;;6170057;23;20847;-78
2023/07/23 07:27:34;;;;;;;3.13;2.73;;;23.60;99.90;;;;;;6170579;23;20427;-80
2023/07/23 07:30:06;;;;;;;6.77;2.90;;;23.60;99.90;;;;;;6165343;23;20421;-80
2023/07/23 07:32:44;;;;;;;4.83;2.83;;;23.60;99.90;;;;;;6162670;23;20373;-81
2023/07/23 07:35:17;;;;;;;2.67;2.47;;;23.80;99.90;;;;;;6163876;23;20455;-80
2023/07/23 07:38:09;;;;;;;3.17;2.90;;;23.90;99.90;;;;;;6162964;23;20475;-79
2023/07/23 07:40:42;;;;;;;3.50;3.20;;;23.80;99.90;;;;;;6167819;23;20404;-78
2023/07/23 07:43:10;;;;;;;3.00;2.80;;;23.80;99.90;;;;;;6165453;23;20380;-80
2023/07/23 07:45:54;;;;;;;3.53;3.30;;;23.80;99.90;;;;;;6162581;23;20448;-80
2023/07/23 07:48:25;;;;;;;3.20;2.53;;;24.00;99.90;;;;;;6163701;23;20404;-79
2023/07/23 07:50:59;;;;;;;2.33;2.17;;;24.10;99.90;;;;;;6160506;23;20403;-80
2023/07/23 07:53:31;;;;;;;3.17;2.90;;;23.80;99.90;;;;;;6183118;23;20485;-79
2023/07/23 07:56:00;;;;;;;3.50;3.20;;;24.00;99.90;;;;;;6188417;23;20450;-79
2023/07/23 07:58:29;;;;;;;3.17;2.87;;;24.20;99.90;;;;;;6194332;23;20439;-79
2023/07/23 08:01:08;;;;;;;3.00;2.80;;;24.30;99.90;;;;;;6194777;23;20498;-79
2023/07/23 08:03:40;;;;;;;2.60;2.40;;;24.20;99.90;;;;;;6192273;23;20411;-79
2023/07/23 08:06:24;;;;;;;2.37;2.27;;;24.00;99.90;;;;;;6190660;23;20439;-77
2023/07/23 08:09:01;;;;;;;2.67;2.47;;;24.10;99.90;;;;;;6192430;23;20418;-78
2023/07/23 08:11:32;;;;;;;2.90;2.70;;;24.30;99.90;;;;;;6198766;23;20403;-79
2023/07/23 08:14:10;;;;;;;2.63;2.43;;;24.60;99.90;;;;;;6191923;23;20435;-79
2023/07/23 08:16:58;;;;;;;2.97;2.77;;;24.50;99.90;;;;;;6194937;23;20466;-78
2023/07/23 08:19:33;;;;;;;2.77;2.57;;;24.70;99.90;;;;;;6195286;23;20423;-78
2023/07/23 08:22:06;;;;;;;3.30;2.43;;;24.80;99.90;;;;;;6201945;23;20395;-79
2023/07/23 08:24:34;;;;;;;2.50;2.30;;;24.90;99.90;;;;;;6199254;23;20450;-79
2023/07/23 08:27:05;;;;;;;2.63;2.43;;;25.10;99.90;;;;;;6196191;23;20847;-80
2023/07/23 08:29:35;;;;;;;2.53;2.40;;;25.00;99.90;;;;;;6196167;23;20494;-78
2023/07/23 08:32:08;;;;;;;2.93;2.73;;;25.00;99.90;;;;;;6194186;23;20415;-79
2023/07/23 08:34:43;;;;;;;4.07;2.37;;;25.00;99.90;;;;;;6194626;23;20435;-80
2023/07/23 08:37:22;;;;;;;3.47;2.67;;;24.90;99.90;;;;;;6195727;23;20411;-80
2023/07/23 08:40:02;;;;;;;2.70;2.50;;;24.90;99.90;;;;;;6202465;23;20414;-77
2023/07/23 08:43:05;;;;;;;2.30;2.10;;;24.70;99.90;;;;;;6202666;23;20779;-80
2023/07/23 08:46:19;;;;;;;2.30;2.10;;;24.70;99.90;;;;;;6195614;23;20443;-79
2023/07/23 08:49:11;;;;;;;2.47;2.27;;;24.60;99.90;;;;;;6188938;23;20458;-79
2023/07/23 08:51:57;;;;;;;1.73;1.63;;;24.90;99.90;;;;;;6195440;23;20410;-78
2023/07/23 08:54:45;;;;;;;2.37;2.27;;;25.20;99.90;;;;;;6165884;23;20496;-80
2023/07/23 08:57:24;;;;;;;1.80;1.70;;;25.40;99.90;;;;;;6167294;23;20412;-79
2023/07/23 08:59:58;;;;;;;2.13;2.03;;;25.50;99.90;;;;;;6167991;23;20397;-80
2023/07/23 09:02:28;;;;;;;1.90;1.80;;;25.30;99.90;;;;;;6166340;23;20411;-78
2023/07/23 09:05:10;;;;;;;2.30;2.10;;;25.40;99.90;;;;;;6170440;23;20439;-77
2023/07/23 09:07:47;;;;;;;2.10;2.00;;;25.40;99.90;;;;;;6173113;23;20501;-80
2023/07/23 09:10:23;;;;;;;2.30;2.20;;;25.40;99.90;;;;;;6175575;23;20452;-80
2023/07/23 09:13:00;;;;;;;1.90;1.80;;;25.50;99.90;;;;;;6177086;23;20408;-79
2023/07/23 09:15:32;;;;;;;2.23;2.10;;;25.50;99.90;;;;;;6176145;23;20428;-77
2023/07/23 09:18:05;;;;;;;2.87;2.33;;;25.40;99.90;;;;;;6173575;23;20420;-80
2023/07/23 09:20:35;;;;;;;2.17;2.07;;;25.40;99.90;;;;;;6172854;23;20436;-78
2023/07/23 09:23:07;;;;;;;2.00;1.90;;;25.30;99.90;;;;;;6169029;23;20811;-78
2023/07/23 09:25:36;;;;;;;2.73;2.53;;;25.20;99.90;;;;;;6165628;23;20527;-77
2023/07/23 09:28:26;;;;;;;2.10;2.00;;;25.20;99.90;;;;;;6168334;23;20408;-78
2023/07/23 09:31:10;;;;;;;2.23;1.77;;;25.50;99.90;;;;;;6168110;23;20412;-79
2023/07/23 09:33:39;;;;;;;3.13;2.43;;;25.40;99.80;;;;;;6141280;23;20408;-79
2023/07/23 09:36:13;;;;;;;2.10;1.97;;;25.60;99.90;;;;;;6164406;23;20396;-80
2023/07/23 09:39:02;;;;;;;2.20;2.00;;;25.80;99.30;;;;;;6170417;23;20408;-78
2023/07/23 09:41:49;;;;;;;2.13;1.93;;;25.80;98.50;;;;;;6171720;23;20416;-80
2023/07/23 09:44:34;;;;;;;8.23;2.40;;;26.00;97.70;;;;;;6171543;23;20515;-78
2023/07/23 09:47:05;;;;;;;2.63;2.13;;;26.10;98.10;;;;;;6174085;23;20443;-78
2023/07/23 09:49:33;;;;;;;2.20;2.00;;;26.10;97.80;;;;;;6169782;23;20432;-78
2023/07/23 09:52:08;;;;;;;1.83;1.73;;;26.10;98.00;;;;;;6173210;23;20408;-79
2023/07/23 09:54:41;;;;;;;2.03;1.90;;;26.10;97.50;;;;;;6197309;23;20426;-80
2023/07/23 09:57:26;;;;;;;2.60;2.40;;;26.20;97.70;;;;;;6199117;23;20446;-79
2023/07/23 10:00:09;;;;;;;2.67;2.47;;;26.40;96.30;;;;;;6198485;23;20372;-77
2023/07/23 10:02:41;;;;;;;2.40;2.20;;;26.60;96.20;;;;;;6194560;23;20422;-79
2023/07/23 10:05:15;;;;;;;2.03;1.93;;;27.00;95.60;;;;;;6194637;23;20432;-79
2023/07/23 10:08:00;;;;;;;2.20;2.10;;;27.30;95.30;;;;;;6194736;23;20410;-79
2023/07/23 10:10:33;;;;;;;1.80;1.70;;;27.10;94.90;;;;;;6198054;23;20407;-80
2023/07/23 10:13:08;;;;;;;2.03;1.93;;;27.20;94.50;;;;;;6196697;23;20395;-82
2023/07/23 10:15:40;;;;;;;1.80;1.70;;;27.60;94.00;;;;;;6199607;23;20427;-79
2023/07/23 10:18:23;;;;;;;1.93;1.83;;;28.00;93.00;;;;;;6199799;23;20404;-79
2023/07/23 10:21:10;;;;;;;2.23;2.13;;;27.90;92.70;;;;;;6200282;23;20818;-80
2023/07/23 10:26:34;;;;;;;3.50;2.47;;;26.80;92.80;;;;;;6161335;23;20448;-80
2023/07/23 10:29:18;;;;;;;3.03;2.10;;;26.90;93.10;;;;;;6166748;23;20420;-78
2023/07/23 10:32:09;;;;;;;1.90;1.80;;;27.10;92.90;;;;;;6166779;23;20418;-79
2023/07/23 10:35:02;;;;;;;;;;;;;;;;;;;;;
2023/07/23 10:44:15;;;;;;;2.30;2.20;;;28.40;92.10;;;;;;6114541;23;20486;-77
2023/07/23 10:49:45;;;;;;;2.30;2.20;;;29.30;89.20;;;;;;6134866;23;20413;-79
2023/07/23 10:52:22;;;;;;;2.23;2.13;;;29.10;90.00;;;;;;6162241;23;20902;-79
2023/07/23 10:55:00;;;;;;;3.13;2.50;;;28.50;90.40;;;;;;6162656;23;20424;-81
2023/07/23 10:57:42;;;;;;;3.60;3.30;;;28.10;89.90;;;;;;6163260;23;20455;-80
2023/07/23 11:00:38;;;;;;;3.37;3.10;;;28.00;89.00;;;;;;6166807;23;20404;-81
2023/07/23 11:06:37;;;;;;;3.53;2.30;;;28.10;89.90;;;;;;6157960;23;20446;-77
2023/07/23 11:12:29;;;;;;;3.50;2.70;;;28.90;88.80;;;;;;6161273;23;20420;-77
2023/07/23 11:15:49;;;;;;;2.50;2.30;;;28.60;88.20;;;;;;6160972;23;20954;-79
2023/07/23 11:18:48;;;;;;;2.63;2.50;;;29.00;87.20;;;;;;6160269;23;20405;-79
2023/07/23 11:21:29;;;;;;;2.63;2.43;;;29.00;86.90;;;;;;6158320;23;20412;-78
2023/07/23 11:24:07;;;;;;;2.57;2.37;;;29.30;86.50;;;;;;6160891;23;20412;-78
2023/07/23 11:27:29;;;;;;;2.60;2.40;;;29.90;83.00;;;;;;6164525;23;20444;-78
2023/07/23 11:30:24;;;;;;;2.60;2.50;;;29.80;82.60;;;;;;6167207;23;20439;-77
2023/07/23 11:36:20;;;;;;;4.17;2.50;;;29.80;81.20;;;;;;6168135;23;20886;-79
2023/07/23 11:39:23;;;;;;;2.33;2.20;;;30.00;80.60;;;;;;6170572;23;20513;-79
2023/07/23 11:42:22;;;;;;;2.80;2.60;;;30.50;80.00;;;;;;6170709;23;20479;-78
2023/07/23 11:45:19;;;;;;;2.90;2.70;;;30.70;79.30;;;;;;6170071;23;20446;-78
2023/07/23 11:52:16;;;;;;;3.00;2.80;;;30.70;75.00;;;;;;6158116;23;20409;-81
2023/07/23 11:55:05;;;;;;;3.90;2.57;;;30.10;74.50;;;;;;6171229;23;20454;-81
2023/07/23 11:58:02;;;;;;;2.60;2.40;;;29.70;74.60;;;;;;6168373;23;20416;-79
2023/07/23 12:00:48;;;;;;;3.40;2.60;;;29.10;73.50;;;;;;6169610;23;20413;-79
2023/07/23 12:03:24;;;;;;;2.60;2.50;;;29.00;75.80;;;;;;6170258;23;20406;-79
2023/07/23 12:06:03;;;;;;;2.50;2.40;;;29.30;75.20;;;;;;6172662;23;20447;-80
2023/07/23 12:08:46;;;;;;;3.53;2.60;;;29.50;73.70;;;;;;6172454;23;20419;-80
2023/07/23 12:11:34;;;;;;;2.47;2.27;;;29.00;73.60;;;;;;6173209;23;20533;-78
2023/07/23 12:14:33;;;;;;;2.33;2.23;;;29.20;73.80;;;;;;6173470;23;20416;-81
2023/07/23 12:17:36;;;;;;;;;;;;;;;;;;;;;
2023/07/23 12:20:17;;;;;;;3.00;2.80;;;28.90;74.70;;;;;;6174052;23;20392;-82
2023/07/23 12:23:12;;;;;;;2.70;2.60;;;28.60;75.20;;;;;;6173996;23;20558;-81
2023/07/23 12:26:09;;;;;;;;;;;;;;;;;;;;;
2023/07/23 12:28:44;;;;;;;2.60;2.40;;;28.00;74.60;;;;;;6172335;23;20404;-80
2023/07/23 12:31:19;;;;;;;3.07;2.77;;;27.80;75.50;;;;;;6172864;23;20432;-81
2023/07/23 12:33:47;;;;;;;2.70;2.23;;;27.60;76.20;;;;;;6172713;23;20419;-79
2023/07/23 12:36:24;;;;;;;3.20;2.90;;;27.70;77.20;;;;;;6172761;23;20430;-80
2023/07/23 12:39:03;;;;;;;3.00;2.80;;;27.30;78.30;;;;;;6176228;23;20419;-78
2023/07/23 12:41:39;;;;;;;3.80;3.10;;;27.30;78.80;;;;;;6175893;23;20416;-79
2023/07/23 12:44:14;;;;;;;2.77;2.67;;;27.40;79.10;;;;;;6176755;23;20416;-79
2023/07/23 12:46:43;;;;;;;2.93;2.73;;;26.90;80.20;;;;;;6175135;23;20443;-80
2023/07/23 12:52:09;;;;;;;3.17;2.87;;;26.90;82.20;;;;;;6171804;23;20484;-79
2023/07/23 12:54:37;;;;;;;3.33;2.60;;;27.10;82.70;;;;;;6175202;23;20475;-81
2023/07/23 12:57:10;;;;;;;2.93;2.53;;;26.90;83.40;;;;;;6177970;23;20396;-78
2023/07/23 12:59:42;;;;;;;2.87;2.67;;;27.10;83.70;;;;;;6177646;23;20419;-79
2023/07/23 13:02:13;;;;;;;3.00;2.80;;;27.20;83.70;;;;;;6178019;23;20428;-79
2023/07/23 13:04:47;;;;;;;2.70;2.50;;;27.10;83.90;;;;;;6177835;23;20439;-81
2023/07/23 13:07:33;;;;;;;2.80;2.60;;;27.20;84.50;;;;;;6178188;23;20443;-79
2023/07/23 13:10:11;;;;;;;3.10;2.90;;;27.20;84.40;;;;;;6178715;23;20402;-80
2023/07/23 13:12:56;;;;;;;3.03;2.83;;;27.10;85.20;;;;;;6177818;23;20415;-82
2023/07/23 13:15:28;;;;;;;3.57;3.27;;;27.00;85.80;;;;;;6177978;23;20404;-81
2023/07/23 13:17:57;;;;;;;3.53;3.23;;;27.00;85.70;;;;;;6178284;23;20423;-79
2023/07/23 13:20:28;;;;;;;2.87;2.67;;;27.10;86.10;;;;;;6179622;23;20392;-80
2023/07/23 13:23:08;;;;;;;2.90;2.73;;;27.40;86.00;;;;;;6178741;23;20408;-79
2023/07/23 13:25:54;;;;;;;3.07;2.87;;;27.30;85.90;;;;;;6178095;23;20428;-82
2023/07/23 13:29:06;;;;;;;2.80;2.60;;;27.20;85.80;;;;;;6168585;23;20431;-84
2023/07/23 13:31:58;;;;;;;2.70;2.50;;;27.20;85.50;;;;;;6175540;23;20387;-81
2023/07/23 13:34:26;;;;;;;3.40;3.20;;;27.20;85.90;;;;;;6157266;23;20436;-78
2023/07/23 13:36:55;;;;;;;3.30;3.10;;;27.50;86.90;;;;;;6172596;23;20435;-80
2023/07/23 13:39:32;;;;;;;3.43;3.00;;;27.40;85.20;;;;;;6172095;23;20423;-78
2023/07/23 13:41:59;;;;;;;3.27;2.97;;;27.60;86.00;;;;;;6178362;23;20392;-78
2023/07/23 13:44:33;;;;;;;3.43;3.10;;;27.10;85.50;;;;;;6182302;23;20506;-78
2023/07/23 13:47:01;;;;;;;3.20;3.00;;;27.30;84.90;;;;;;6181786;23;20427;-79
2023/07/23 13:49:36;;;;;;;3.50;3.30;;;27.50;83.80;;;;;;6179684;23;20408;-80
2023/07/23 13:52:11;;;;;;;3.63;3.33;;;27.40;82.80;;;;;;6171356;23;20427;-82
2023/07/23 13:54:42;;;;;;;2.93;2.70;;;27.50;83.20;;;;;;6165877;23;20439;-80
2023/07/23 13:57:13;;;;;;;3.23;3.03;;;27.40;82.30;;;;;;6166452;23;20495;-80
2023/07/23 13:59:51;;;;;;;4.43;3.73;;;27.30;81.60;;;;;;6169814;23;20444;-79
2023/07/23 14:02:25;;;;;;;3.67;3.37;;;27.10;81.50;;;;;;6171831;23;20412;-79
2023/07/23 14:05:15;;;;;;;3.57;3.27;;;27.30;81.00;;;;;;6169677;23;20428;-79
2023/07/23 14:07:50;;;;;;;4.80;4.40;;;27.20;80.20;;;;;;6171778;23;20400;-81
2023/07/23 14:13:22;;;;;;;4.30;3.90;;;27.20;78.80;;;;;;6157974;23;20400;-80
2023/07/23 14:16:05;;;;;;;4.00;3.60;;;27.10;77.90;;;;;;6174962;23;20719;-79
2023/07/23 14:18:48;;;;;;;3.47;3.17;;;27.20;73.80;;;;;;6171352;23;20471;-82
2023/07/23 14:21:24;;;;;;;4.17;3.87;;;27.20;72.20;;;;;;6174614;23;20416;-79
2023/07/23 14:24:07;;;;;;;4.13;3.73;;;27.00;69.50;;;;;;6174976;23;20892;-80
2023/07/23 14:26:41;;;;;;;5.03;4.27;;;27.00;69.60;;;;;;6172745;23;20440;-81
2023/07/23 14:29:08;;;;;;;4.80;4.40;;;27.00;70.00;;;;;;6169462;23;20898;-81
2023/07/23 14:31:52;;;;;;;4.50;4.10;;;26.90;69.20;;;;;;6171931;23;20412;-82
2023/07/23 14:34:20;;;;;;;4.83;4.07;;;26.80;69.70;;;;;;6173077;23;20416;-81
2023/07/23 14:37:01;;;;;;;4.53;4.13;;;26.90;69.70;;;;;;6172776;23;20412;-79
2023/07/23 14:39:36;;;;;;;5.20;3.97;;;26.80;70.70;;;;;;6172389;23;20530;-80
2023/07/23 14:42:03;;;;;;;4.97;4.50;;;26.70;70.20;;;;;;6174957;23;20415;-79
2023/07/23 14:44:51;;;;;;;3.97;3.67;;;26.70;70.40;;;;;;6175046;23;20476;-80
2023/07/23 14:47:37;;;;;;;4.43;4.03;;;26.80;71.10;;;;;;6178669;23;20516;-77